createdAt,value
2023-02-14T00:01:10.706Z,97538.53
2023-02-14T00:06:14.248Z,97534.72
2023-02-14T00:11:15.699Z,97533.34
2023-02-14T00:16:17.207Z,97535.16
2023-02-14T00:21:18.749Z,97547.84
2023-02-14T00:26:20.336Z,97547.53
2023-02-14T00:31:22.716Z,97550.38
2023-02-14T00:36:24.359Z,97545.59
2023-02-14T00:41:25.894Z,97542.75
2023-02-14T00:46:27.958Z,97538.25
2023-02-14T00:51:30.550Z,97539.19
2023-02-14T00:56:32.396Z,97537.53
2023-02-14T01:01:34.018Z,97524.47
2023-02-14T01:06:37.826Z,97523.72
2023-02-14T01:11:39.407Z,97522.59
2023-02-14T01:16:41.025Z,97515.94
2023-02-14T01:21:42.566Z,97515.41
2023-02-14T01:26:44.086Z,97510.94
2023-02-14T01:31:45.624Z,97511.97
2023-02-14T01:36:47.086Z,97509.34
2023-02-14T01:41:48.861Z,97503.50
2023-02-14T01:46:51.071Z,97491.81
2023-02-14T01:51:57.177Z,97496.31
2023-02-14T01:57:02.355Z,97498.19
2023-02-14T02:02:05.295Z,97507.41
2023-02-14T02:07:11.646Z,97502.75
2023-02-14T02:12:13.398Z,97496.44
2023-02-14T02:17:22.432Z,97500.81
2023-02-14T02:22:41.930Z,97490.09
2023-02-14T02:28:20.707Z,97487.06
2023-02-14T02:33:42.943Z,97478.44
2023-02-14T02:39:12.008Z,97474.44
2023-02-14T02:44:44.069Z,97474.84
2023-02-14T02:50:13.406Z,97482.53
2023-02-14T02:55:56.757Z,97479.63
2023-02-14T03:01:06.985Z,97480.97
2023-02-14T03:06:08.540Z,97475.16
2023-02-14T03:11:12.335Z,97470.69
2023-02-14T03:16:35.861Z,97475.47
2023-02-14T03:22:00.529Z,97471.97
2023-02-14T03:27:22.025Z,97465.63
2023-02-14T03:32:45.479Z,97461.63
2023-02-14T03:37:57.253Z,97457.63
2023-02-14T03:43:06.549Z,97462.50
2023-02-14T03:48:12.905Z,97470.28
2023-02-14T03:53:20.332Z,97473.06
2023-02-14T03:58:30.871Z,97476.97
2023-02-14T04:03:34.821Z,97489.84
2023-02-14T04:08:36.283Z,97484.25
2023-02-14T04:13:38.549Z,97492.97
2023-02-14T04:18:39.991Z,97489.16
2023-02-14T04:23:41.622Z,97490.75
2023-02-14T04:28:43.064Z,97496.31
2023-02-14T04:33:44.578Z,97508.91
2023-02-14T04:38:46.023Z,97505.19
2023-02-14T04:43:47.504Z,97511.38
2023-02-14T04:48:49.058Z,97513.56
2023-02-14T04:53:50.582Z,97491.59
2023-02-14T04:58:52.041Z,97491.81
2023-02-14T05:03:53.508Z,97486.06
2023-02-14T05:08:55.907Z,97475.22
2023-02-14T05:13:57.448Z,97471.72
2023-02-14T05:18:58.901Z,97466.38
2023-02-14T05:24:01.139Z,97460.72
2023-02-14T05:29:02.664Z,97463.31
2023-02-14T05:34:04.134Z,97455.25
2023-02-14T05:39:05.750Z,97471.84
2023-02-14T05:44:07.452Z,97479.38
2023-02-14T05:49:08.942Z,97478.13
2023-02-14T05:54:11.135Z,97487.38
2023-02-14T05:59:12.723Z,97479.63
2023-02-14T06:04:14.250Z,97481.88
2023-02-14T06:09:15.909Z,97495.94
2023-02-14T06:14:17.556Z,97488.63
2023-02-14T06:19:19.136Z,97496.59
2023-02-14T06:24:20.632Z,97497.97
2023-02-14T06:29:22.162Z,97502.66
2023-02-14T06:34:23.624Z,97511.63
2023-02-14T06:39:25.080Z,97512.13
2023-02-14T06:44:26.650Z,97524.84
2023-02-14T06:49:28.161Z,97525.84
2023-02-14T06:54:29.706Z,97535.31
2023-02-14T06:59:31.219Z,97534.47
2023-02-14T07:04:32.755Z,97539.41
2023-02-14T07:09:34.254Z,97538.41
2023-02-14T07:14:35.805Z,97540.34
2023-02-14T07:19:37.260Z,97543.72
2023-02-14T07:24:38.711Z,97527.19
2023-02-14T07:29:40.263Z,97522.84
2023-02-14T07:34:41.780Z,97532.53
2023-02-14T07:39:44.344Z,97526.22
2023-02-14T07:44:46.890Z,97518.25
2023-02-14T07:49:48.311Z,97515.03
2023-02-14T07:54:49.850Z,97512.25
2023-02-14T07:59:51.366Z,97514.00
2023-02-14T08:04:52.962Z,97509.50
2023-02-14T08:09:54.522Z,97501.56
2023-02-14T08:14:56.022Z,97498.63
2023-02-14T08:19:57.753Z,97505.13
2023-02-14T08:24:59.201Z,97503.03
2023-02-14T08:30:00.794Z,97489.94
2023-02-14T08:35:02.356Z,97489.72
2023-02-14T08:40:04.186Z,97486.81
2023-02-14T08:45:05.884Z,97486.72
2023-02-14T08:50:13.226Z,97491.28
2023-02-14T08:55:14.806Z,97484.63
2023-02-14T09:00:17.102Z,97493.84
2023-02-14T09:05:19.590Z,97495.84
2023-02-14T09:10:21.065Z,97492.28
2023-02-14T09:15:22.593Z,97490.63
2023-02-14T09:20:24.206Z,97482.06
2023-02-14T09:25:25.691Z,97483.56
2023-02-14T09:30:27.414Z,97481.75
2023-02-14T09:35:28.970Z,97472.50
2023-02-14T09:40:32.432Z,97472.34
2023-02-14T09:45:34.762Z,97473.38
2023-02-14T09:50:48.455Z,97466.09
2023-02-14T09:56:14.518Z,97464.44
2023-02-14T10:01:23.549Z,97460.13
2023-02-14T10:06:50.381Z,97456.19
2023-02-14T10:11:52.991Z,97452.44
2023-02-14T10:17:05.884Z,97451.81
2023-02-14T10:22:13.827Z,97447.88
2023-02-14T10:27:32.758Z,97448.91
2023-02-14T10:32:49.910Z,97437.44
2023-02-14T10:38:15.622Z,97432.44
2023-02-14T10:43:37.065Z,97424.34
2023-02-14T10:48:57.096Z,97412.72
2023-02-14T10:54:18.511Z,97405.38
2023-02-14T10:59:35.450Z,97403.00
2023-02-14T11:04:37.826Z,97401.84
2023-02-14T11:09:39.354Z,97400.13
2023-02-14T11:14:41.028Z,97386.63
2023-02-14T11:20:00.678Z,97382.38
2023-02-14T11:25:17.688Z,97370.75
2023-02-14T11:30:34.741Z,97367.38
2023-02-14T11:35:37.823Z,97361.75
2023-02-14T11:40:40.267Z,97360.56
2023-02-14T11:45:44.008Z,97346.31
2023-02-14T11:51:11.025Z,97339.66
2023-02-14T11:56:14.289Z,97332.22
2023-02-14T12:01:25.888Z,97321.84
2023-02-14T12:06:33.652Z,97314.34
2023-02-14T12:11:35.192Z,97308.53
2023-02-14T12:16:47.480Z,97306.72
2023-02-14T12:21:58.995Z,97294.25
2023-02-14T12:27:16.192Z,97295.72
2023-02-14T12:32:20.968Z,97284.78
2023-02-14T12:37:50.837Z,97281.38
2023-02-14T12:43:10.607Z,97270.06
2023-02-14T12:48:49.408Z,97263.84
2023-02-14T12:54:20.426Z,97250.09
2023-02-14T12:59:48.709Z,97240.75
2023-02-14T13:04:53.050Z,97244.72
2023-02-14T13:10:08.824Z,97238.72
2023-02-14T13:15:36.708Z,97223.69
2023-02-14T13:20:50.576Z,97218.88
2023-02-14T13:25:59.320Z,97216.88
2023-02-14T13:31:01.135Z,97213.94
2023-02-14T13:36:12.445Z,97200.03
2023-02-14T13:41:15.585Z,97210.13
2023-02-14T13:46:21.267Z,97196.06
2023-02-14T13:51:44.010Z,97206.53
2023-02-14T13:56:45.546Z,97192.13
2023-02-14T14:01:47.064Z,97197.19
2023-02-14T14:07:03.529Z,97189.56
2023-02-14T14:12:27.577Z,97183.00
2023-02-14T14:17:29.116Z,97191.22
2023-02-14T14:22:30.881Z,97185.91
2023-02-14T14:27:35.708Z,97181.84
2023-02-14T14:32:38.443Z,97181.22
2023-02-14T14:37:48.832Z,97173.72
2023-02-14T14:42:50.780Z,97173.13
2023-02-14T14:47:55.058Z,97180.66
2023-02-14T14:53:02.054Z,97176.94
2023-02-14T14:58:25.852Z,97167.38
2023-02-14T15:03:28.967Z,97162.13
2023-02-14T15:08:31.418Z,97164.13
2023-02-14T15:13:51.141Z,97159.59
2023-02-14T15:18:57.338Z,97150.19
2023-02-14T15:23:59.020Z,97153.13
2023-02-14T15:29:04.299Z,97154.81
2023-02-14T15:34:06.679Z,97153.66
2023-02-14T15:39:10.902Z,97157.69
2023-02-14T15:44:24.225Z,97151.56
2023-02-14T15:49:33.725Z,97152.03
2023-02-14T15:54:47.660Z,97153.09
2023-02-14T15:59:49.740Z,97152.00
2023-02-14T16:04:51.337Z,97151.19
2023-02-14T16:10:23.841Z,97150.09
2023-02-14T16:15:28.521Z,97147.44
2023-02-14T16:20:36.134Z,97159.16
2023-02-14T16:25:37.790Z,97154.19
2023-02-14T16:30:40.738Z,97161.75
2023-02-14T16:35:42.335Z,97170.25
2023-02-14T16:40:46.739Z,97171.69
2023-02-14T16:45:48.250Z,97172.75
2023-02-14T16:50:49.756Z,97184.25
2023-02-14T16:55:53.835Z,97178.19
2023-02-14T17:00:55.351Z,97182.19
2023-02-14T17:05:58.267Z,97180.19
2023-02-14T17:11:00.427Z,97187.34
2023-02-14T17:16:04.645Z,97187.88
2023-02-14T17:21:06.131Z,97199.81
2023-02-14T17:26:07.575Z,97202.34
2023-02-14T17:31:09.178Z,97203.06
2023-02-14T17:36:12.756Z,97198.81
2023-02-14T17:41:17.022Z,97207.38
2023-02-14T17:46:19.294Z,97199.25
2023-02-14T17:51:21.239Z,97194.94
2023-02-14T17:56:25.597Z,97196.69
2023-02-14T18:01:29.681Z,97197.19
2023-02-14T18:06:31.708Z,97194.38
2023-02-14T18:11:33.270Z,97200.44
2023-02-14T18:16:37.838Z,97192.25
2023-02-14T18:21:39.284Z,97194.50
2023-02-14T18:26:41.557Z,97196.84
2023-02-14T18:31:44.647Z,97201.47
2023-02-14T18:36:46.250Z,97206.13
2023-02-14T18:41:47.745Z,97197.13
2023-02-14T18:46:49.240Z,97200.84
2023-02-14T18:51:50.745Z,97191.34
2023-02-14T18:56:52.236Z,97192.41
2023-02-14T19:01:53.707Z,97182.16
2023-02-14T19:06:55.147Z,97176.09
2023-02-14T19:11:56.665Z,97183.97
2023-02-14T19:16:58.157Z,97179.34
2023-02-14T19:22:00.439Z,97180.91
2023-02-14T19:27:02.123Z,97175.81
2023-02-14T19:32:06.132Z,97168.69
2023-02-14T19:37:07.722Z,97165.16
2023-02-14T19:42:09.243Z,97166.31
2023-02-14T19:47:25.608Z,97160.13
2023-02-14T19:52:30.526Z,97144.84
2023-02-14T19:57:32.033Z,97150.03
2023-02-14T20:02:33.561Z,97151.31
2023-02-14T20:07:35.071Z,97144.94
2023-02-14T20:12:36.994Z,97149.97
2023-02-14T20:17:38.664Z,97141.91
2023-02-14T20:22:40.898Z,97140.94
2023-02-14T20:27:42.350Z,97129.16
2023-02-14T20:32:43.776Z,97132.97
2023-02-14T20:37:45.226Z,97131.59
2023-02-14T20:42:49.273Z,97134.88
2023-02-14T20:47:50.737Z,97135.25
2023-02-14T20:52:52.262Z,97129.34
2023-02-14T20:57:54.428Z,97119.84
2023-02-14T21:02:56.930Z,97120.72
2023-02-14T21:07:58.420Z,97108.75
2023-02-14T21:12:59.945Z,97108.72
2023-02-14T21:18:01.422Z,97102.75
2023-02-14T21:23:02.867Z,97095.22
2023-02-14T21:28:04.395Z,97099.34
2023-02-14T21:33:05.905Z,97096.13
2023-02-14T21:38:07.404Z,97091.63
2023-02-14T21:43:08.847Z,97085.19
2023-02-14T21:48:10.279Z,97087.97
2023-02-14T21:53:11.708Z,97077.59
2023-02-14T21:58:13.225Z,97079.97
2023-02-14T22:03:14.747Z,97080.25
2023-02-14T22:08:16.310Z,97073.16
2023-02-14T22:13:17.838Z,97070.47
2023-02-14T22:18:19.374Z,97064.16
2023-02-14T22:23:20.831Z,97070.88
2023-02-14T22:28:22.503Z,97062.59
2023-02-14T22:33:24.058Z,97062.13
2023-02-14T22:38:25.931Z,97050.19
2023-02-14T22:43:27.388Z,97058.16
2023-02-14T22:48:32.748Z,97046.00
2023-02-14T22:53:34.614Z,97043.88
2023-02-14T22:58:36.070Z,97047.38
2023-02-14T23:03:37.582Z,97047.91
2023-02-14T23:08:40.817Z,97039.91
2023-02-14T23:13:42.832Z,97041.59
2023-02-14T23:18:44.335Z,97039.72
2023-02-14T23:23:45.871Z,97028.03
2023-02-14T23:28:47.416Z,97023.50
2023-02-14T23:33:51.872Z,97028.13
2023-02-14T23:38:53.354Z,97023.03
2023-02-14T23:43:54.816Z,97011.34
2023-02-14T23:48:56.317Z,97007.66
2023-02-14T23:53:57.907Z,97011.66
2023-02-14T23:58:59.351Z,97012.72
